Portada
METAR-TAF:

METAR-TAF

Aeroports :

Daşoguz, Turkmenistan

latitud: 41-45-53N, longitud: 059-49-59E, altitud: 83 m

Observació

L'informe es va fer fa 18 minuts, a les 01:00 UTC
Vent 8 kt del Nord-Est
Temperatura 26°C
Humitat 48%
Pressió 1002 hPa
Visibilitat 10 km o més
sense núvols per sota de 1500 mi sense presència de cumulonimbus.

METAR: UTAT 170100Z 05008KT CAVOK 26/14 Q1002 NOSIG

Hora: 06:18 (01:18 UTC)

Pronòstic

L'informe es va fer fa 2 hores i 43 minuts, a les 22:35 UTC
Pronòstic vàlid del 17 a les 00 UTC al 17 a les 24 UTC
Vent 12 kt del Nord
Visibilitat 10 km o més
sense núvols per sota de 1500 mi sense presència de cumulonimbus.
Temporalment
l' 17 a les 04 UTC al 17 a les 10 UTC
Vent 12 kt del Nord-Est amb ràfegues de 22 kt

TAF: UTAT 162235Z 1700/1724 35012KT CAVOK TEMPO 1704/1710 05012G22KT

Observacions i pronòstics meteorològics de més de 4000 aeroports (METAR i TAF).

Les estacions disponibles són els punts grocs i vermells al mapa.

Posi el ratolí al punt desitjat per veure el nom de l'estació.

Feu clic per veure les observacions i els pronòstics meteorològics.

Per canviar el mapa: feu clic els botons verds amb una creu de color negre per apropar; al botó verd amb un guió per allunyar la imatge; o en les fletxes verdes per a mapes adjacents.


METAR-TAF: